메인 페이지
METAR-TAF:

METAR-TAF

공항 :

바라나시, 인도

위도: 25-27N, 경도: 082-52E, 고도: 81m

현재 날씨관측

예보는 56분 전, 21:00시(UTC)에 발표되었습니다.
북동8kt
온도 28°C
습도 70%
기압 1002 hPa
시정: 4000m
고도 10000ft 상공 구름 조금
연무

METAR: VEBN 282100Z 05008KT 4000 HZ FEW100 28/22 Q1002 NOSIG

시각: 03:26 (21:56 UTC)

예보

예보는 4 시간 56분 전, 17:00시(UTC)에 발표되었습니다.
예보 대상 시간: 28일 18시부터 29일 24시까지 (UTC)
6kt
시정: 3000m
고도 2000ft 상공 구름 보통
고도 3000ft 상공 구름 조금, 적란운.
고도 9000ft 상공 흐림
약한비, 뇌우, 약한비
전환 중
28일 23시부터 29일 01시까지 (UTC)
여러 방향의 바람 2kt
시정: 2500m
고도 2000ft 상공 구름 보통
고도 9000ft 상공 흐림
약한비
전환 중
29일 05시부터 29일 07시까지 (UTC)
시정: 5000m
연무
일시적
29일 09시부터 29일 13시까지 (UTC)
고도 3000ft 상공 구름 조금, 적란운.
고도 9000ft 상공 흐림
전환 중
29일 16시부터 29일 18시까지 (UTC)
북북서6kt
시정: 3000m
고도 2000ft 상공 구름 조금
고도 10000ft 상공 구름 보통
연무

TAF: VEBN 281700Z 2818/2924 09006KT 3000 -RA -TSRA SCT020 FEW030CB OVC090 BECMG 2823/2901 VRB02KT 2500 -RA SCT020 OVC090 BECMG 2905/2907 5000 HZ TEMPO 2909/2913 FEW030CB OVC090 BECMG 2916/2918 34006KT 3000 HZ FEW020 SCT100

4,000개 이상의 공항 관측 자료 및 예보 (METAR 및 TAF 보고).

지도상에서 검색 가능한 기상관측소가 노란 점과 빨간 점으로 표시되어 있습니다.

기상관측소 명을 보려면 표시 위로 마우스를 이동하세요.

날씨 관측과 예보를 보려면 클릭하세요.

지도 변경 : 확대하려면 엑스 표시가 있는 녹색 버튼, 축소하려면 빼기 표시가 있는 녹색 버튼, 다음 페이지의 지도를 보려면 녹색 화살표를 클릭하세요.


METAR-TAF: